ADDS METAR Data INFO
IDs: Format: Raw Decoded Include TAF

Data at: 0104 UTC 21 Oct 2017

KMPZ 210035Z AUTO 16011KT 10SM CLR 19/09 A2995 RMK AO2 T01860085
KMPZ 210015Z AUTO 15011KT 10SM CLR 18/08 A2996 RMK AO2 T01810084
KMPZ 202355Z AUTO 15008KT 10SM CLR 18/09 A2996 RMK AO2 T01830085 10241 20183
KMPZ 202335Z AUTO 16007KT 10SM CLR 19/08 A2996 RMK AO2 T01900083
KMPZ 202315Z AUTO 17008KT 10SM CLR 20/08 A2996 RMK AO2 T01950080
KMPZ 202255Z AUTO 17010KT 10SM CLR 20/08 A2996 RMK AO2 T02000081
KMPZ 202235Z AUTO 16009KT 7SM CLR 20/08 A2996 RMK AO2 T01980084
KMPZ 202215Z AUTO 16009KT 2 1/2SM HZ CLR 20/08 A2996 RMK AO2 VIS 1/2V5 T02020075
KMPZ 202155Z AUTO 17012G19KT 10SM CLR 21/06 A2997 RMK AO2 T02120056
KMPZ 202135Z AUTO 15011G14KT 10SM CLR 22/09 A2997 RMK AO2 T02200085
KMPZ 202115Z AUTO 16011KT 4SM HZ CLR 22/09 A2998 RMK AO2 T02170085
KMPZ 202055Z AUTO 16011G17KT 7SM CLR 23/08 A2998 RMK AO2 T02280083
KMPZ 202035Z AUTO 16013G18KT 7SM CLR 24/08 A2999 RMK AO2 T02380081
KMPZ 202015Z AUTO 17016G20KT 7SM CLR 24/08 A2999 RMK AO2 T02410079
KMPZ 201955Z AUTO 17012G18KT 10SM CLR 24/09 A3000 RMK AO2 T02400088
KMPZ 201935Z AUTO 18015G21KT 7SM CLR 24/08 A3000 RMK AO2 T02370079
KMPZ 201915Z AUTO 15012G19KT 10SM CLR 24/09 A3001 RMK AO2 T02390091
KMPZ 201855Z AUTO 15013G16KT 10SM CLR 24/10 A3002 RMK AO2 T02350097
KMPZ 201835Z AUTO 18013G16KT 10SM CLR 24/10 A3003 RMK AO2 T02380096
KMPZ 201815Z AUTO 18009G14KT 10SM CLR 22/10 A3005 RMK AO2 T02200095
KMPZ 201755Z AUTO 16010KT 10SM CLR 23/10 A3006 RMK AO2 T02300100 10230 20121
KMPZ 201735Z AUTO 19011KT 10SM CLR 23/10 A3007 RMK AO2 T02300102
KMPZ 201715Z AUTO 18009KT 10SM CLR 23/11 A3009 RMK AO2 T02250105
KMPZ 201655Z AUTO 17008KT 10SM CLR 22/11 A3009 RMK AO2 T02150108
KMPZ 201635Z AUTO 19009KT 10SM CLR 21/11 A3010 RMK AO2 T02140108
KMPZ 201615Z AUTO 17009KT 10SM CLR 21/11 A3010 RMK AO2 T02120109
KMPZ 201555Z AUTO 18010KT 10SM CLR 20/11 A3012 RMK AO2 T02040108
KMPZ 201535Z AUTO 19009KT 10SM CLR 20/11 A3013 RMK AO2 T01970107
KMPZ 201515Z AUTO 18010KT 10SM CLR 19/11 A3013 RMK AO2 T01890107
KMPZ 201455Z AUTO 19011G14KT 10SM CLR 18/11 A3013 RMK AO2 T01820105
KMPZ 201435Z AUTO 19009KT 10SM CLR 17/10 A3013 RMK AO2 T01720103
KMPZ 201415Z AUTO 19010KT 10SM CLR 17/10 A3014 RMK AO2 T01650102
KMPZ 201355Z AUTO 18009KT 10SM CLR 16/10 A3014 RMK AO2 T01550100
KMPZ 201335Z AUTO 18008KT 10SM CLR 15/10 A3014 RMK AO2 T01470097
KMPZ 201315Z AUTO 18008KT 10SM CLR 14/10 A3014 RMK AO2 T01390095
KMPZ 201255Z AUTO 18008KT 10SM CLR 13/10 A3014 RMK AO2 T01300095
KMPZ 201235Z AUTO 18007KT 10SM CLR 12/09 A3013 RMK AO2 T01240092
KMPZ 201215Z AUTO 17008KT 10SM CLR 12/09 A3013 RMK AO2 T01220091
KMPZ 201155Z AUTO 18007KT 10SM CLR 12/09 A3013 RMK AO2 T01210091 10150 20116
KMPZ 201135Z AUTO 18007KT 10SM CLR 12/09 A3013 RMK AO2 T01230092
KMPZ 201115Z AUTO 18007KT 10SM CLR 12/09 A3012 RMK AO2 T01220093
KMPZ 201055Z AUTO 17006KT 10SM CLR 12/09 A3012 RMK AO2 T01200093
KMPZ 201035Z AUTO 18006KT 10SM CLR 12/09 A3012 RMK AO2 T01170091
KMPZ 201015Z AUTO 19006KT 10SM CLR 12/09 A3011 RMK AO2 T01200092
KMPZ 200955Z AUTO 19006KT 10SM CLR 12/09 A3011 RMK AO2 T01210094
KMPZ 200935Z AUTO 18006KT 10SM CLR 12/09 A3011 RMK AO2 T01170092
KMPZ 200915Z AUTO 18006KT 10SM CLR 12/09 A3010 RMK AO2 T01180091
KMPZ 200855Z AUTO 18006KT 10SM CLR 13/09 A3010 RMK AO2 T01250093
KMPZ 200835Z AUTO 19006KT 10SM CLR 13/10 A3010 RMK AO2 T01300095
KMPZ 200815Z AUTO 18006KT 10SM CLR 13/10 A3010 RMK AO2 T01300095
KMPZ 200755Z AUTO 19006KT 10SM CLR 14/10 A3010 RMK AO2 T01380095
KMPZ 200735Z AUTO 19006KT 10SM CLR 14/10 A3010 RMK AO2 T01410096
KMPZ 200715Z AUTO 18006KT 10SM CLR 14/10 A3010 RMK AO2 T01410096
KMPZ 200655Z AUTO 18006KT 10SM CLR 14/10 A3010 RMK AO2 T01410095
KMPZ 200635Z AUTO 18006KT 10SM CLR 15/10 A3010 RMK AO2 T01450095
KMPZ 200615Z AUTO 19006KT 10SM CLR 15/10 A3009 RMK AO2 T01470096
KMPZ 200555Z AUTO 19005KT 10SM CLR 15/10 A3009 RMK AO2 T01500096 10178 20150 402500065
KMPZ 200535Z AUTO 19006KT 10SM CLR 15/10 A3009 RMK AO2 T01520096
KMPZ 200515Z AUTO 18006KT 10SM CLR 16/10 A3009 RMK AO2 T01580097
KMPZ 200455Z AUTO 19007KT 10SM CLR 16/10 A3009 RMK AO2 T01600097
KMPZ 200435Z AUTO 19006KT 10SM CLR 16/10 A3009 RMK AO2 T01600098
KMPZ 200415Z AUTO 18007KT 10SM CLR 16/10 A3009 RMK AO2 T01630099
KMPZ 200355Z AUTO 17006KT 10SM CLR 17/10 A3009 RMK AO2 T01660098
KMPZ 200335Z AUTO 17007KT 10SM CLR 17/10 A3009 RMK AO2 T01710099
KMPZ 200315Z AUTO 16008KT 10SM CLR 17/10 A3009 RMK AO2 T01700099
KMPZ 200255Z AUTO 16007KT 10SM CLR 18/10 A3009 RMK AO2 T01760100
KMPZ 200235Z AUTO 16007KT 10SM CLR 17/10 A3009 RMK AO2 T01700100
KMPZ 200215Z AUTO 16006KT 10SM CLR 17/10 A3009 RMK AO2 T01670100
KMPZ 200155Z AUTO 16006KT 10SM CLR 17/10 A3009 RMK AO2 T01730100
KMPZ 200135Z AUTO 17005KT 10SM CLR 18/10 A3009 RMK AO2 T01760102
KMPZ 200115Z AUTO 16007KT 10SM CLR 18/10 A3009 RMK AO2 T01750104
KMPZ 200055Z AUTO 17006KT 10SM CLR 18/11 A3010 RMK AO2 T01750105
KMPZ 200035Z AUTO 17006KT 10SM CLR 17/11 A3010 RMK AO2 T01720106
KMPZ 200015Z AUTO 15005KT 10SM CLR 18/11 A3010 RMK AO2 T01760105
KMPZ 192355Z AUTO 15005KT 10SM CLR 18/11 A3010 RMK AO2 T01790108 10250 20179
KMPZ 192335Z AUTO 16005KT 10SM CLR 19/11 A3009 RMK AO2 T01920109
KMPZ 192315Z AUTO 17005KT 10SM CLR 20/11 A3009 RMK AO2 T02010111
KMPZ 192255Z AUTO 16005KT 10SM CLR 22/11 A3009 RMK AO2 T02150110
KMPZ 192235Z AUTO 16005KT 10SM CLR 23/11 A3009 RMK AO2 T02290105
KMPZ 192215Z AUTO 16006KT 10SM CLR 24/10 A3009 RMK AO2 T02370101
KMPZ 192155Z AUTO 16006KT 10SM CLR 24/10 A3009 RMK AO2 T02420101
KMPZ 192135Z AUTO 17007KT 10SM CLR 25/10 A3009 RMK AO2 T02460100
KMPZ 192115Z AUTO 14008KT 10SM CLR 25/10 A3009 RMK AO2 T02470097
KMPZ 192055Z AUTO 14005KT 10SM CLR 25/10 A3010 RMK AO2 T02480102
KMPZ 192035Z AUTO 13007KT 10SM CLR 25/10 A3010 RMK AO2 T02460101
KMPZ 192015Z AUTO 15006KT 10SM CLR 25/10 A3010 RMK AO2 T02450097
KMPZ 191955Z AUTO 15007KT 10SM CLR 25/10 A3010 RMK AO2 T02450100
KMPZ 191935Z AUTO 18007KT 10SM CLR 24/10 A3011 RMK AO2 T02410099
KMPZ 191915Z AUTO 13008KT 10SM CLR 24/10 A3012 RMK AO2 T02400100
KMPZ 191855Z AUTO 14006KT 10SM CLR 24/10 A3013 RMK AO2 T02380095
KMPZ 191835Z AUTO 14008KT 10SM CLR 24/09 A3013 RMK AO2 T02350093
KMPZ 191815Z AUTO 13006KT 10SM CLR 23/10 A3014 RMK AO2 T02290101
KMPZ 191755Z AUTO 10006KT 10SM CLR 23/10 A3014 RMK AO2 T02250101 10225 20065
KMPZ 191735Z AUTO 13005KT 10SM CLR 22/10 A3015 RMK AO2 T02200099
KMPZ 191715Z AUTO 13005KT 10SM CLR 22/10 A3015 RMK AO2 T02160099
KMPZ 191655Z AUTO 14005KT 10SM CLR 21/09 A3016 RMK AO2 T02100094
KMPZ 191635Z AUTO 10006KT 10SM CLR 21/09 A3016 RMK AO2 T02050091
KMPZ 191615Z AUTO 11006KT 10SM CLR 20/09 A3016 RMK AO2 T01970085
KMPZ 191555Z AUTO 11006KT 10SM CLR 19/09 A3016 RMK AO2 T01920086
KMPZ 191535Z AUTO 12008KT 10SM CLR 18/08 A3016 RMK AO2 T01830083
KMPZ 191515Z AUTO 12007KT 10SM CLR 17/08 A3016 RMK AO2 T01740079
KMPZ 191455Z AUTO 09008KT 3SM HZ CLR 17/07 A3016 RMK AO2 T01700072
KMPZ 191435Z AUTO 09005KT 7SM CLR 16/09 A3016 RMK AO2 T01580091
KMPZ 191415Z AUTO 08006KT 10SM CLR 14/10 A3015 RMK AO2 T01390097
KMPZ 191355Z AUTO 06005KT 10SM CLR 12/11 A3015 RMK AO2 T01200105
KMPZ 191335Z AUTO 05003KT 10SM CLR 11/11 A3014 RMK AO2 T01090108
KMPZ 191315Z AUTO 00000KT 10SM CLR 09/09 A3014 RMK AO2 T00890089